Time;durP1;ratioP1;P1;durP2;ratioP2;P2;SDS_P1;SDS_P2;PMS_P1;PMS_P2;Temp;Humidity;BMP_temperature;BMP_pressure;BME280_temperature;BME280_humidity;BME280_pressure;Samples;Min_cycle;Max_cycle;Signal;HPM_P1;HPM_P2
2022/12/04 00:00:14;;;;;;;0.00;0.00;;;;;;;15.85;56.52;102313.19;2088638;28;20060;-71
2022/12/04 00:01:21;;;;;;;0.00;0.00;;;;;;;15.85;56.54;102310.47;2089451;28;20052;-71
2022/12/04 00:02:22;;;;;;;0.00;0.00;;;;;;;15.84;56.80;102306.94;2088986;28;20053;-71
2022/12/04 00:03:25;;;;;;;0.00;0.00;;;;;;;15.85;56.77;102318.66;2091951;28;20451;-71
2022/12/04 00:04:27;;;;;;;0.00;0.00;;;;;;;15.86;56.85;102312.06;2088625;28;20045;-71
2022/12/04 00:05:31;;;;;;;0.00;0.00;;;;;;;15.87;56.63;102313.66;2095343;28;20492;-71
2022/12/04 00:06:33;;;;;;;0.00;0.00;;;;;;;15.85;56.68;102313.19;2093125;28;20075;-71
2022/12/04 00:07:36;;;;;;;0.00;0.00;;;;;;;15.86;56.64;102304.69;2088378;28;20103;-71
2022/12/04 00:08:38;;;;;;;0.00;0.00;;;;;;;15.87;56.52;102309.00;2081981;28;20057;-71
2022/12/04 00:09:41;;;;;;;0.00;0.00;;;;;;;15.87;56.62;102306.28;2085797;28;20657;-72
2022/12/04 00:10:43;;;;;;;0.00;0.00;;;;;;;15.87;56.68;102310.94;2084481;28;20064;-71
2022/12/04 00:11:45;;;;;;;0.00;0.00;;;;;;;15.88;56.74;102296.19;2081228;28;20084;-71
2022/12/04 00:12:47;;;;;;;0.00;0.00;;;;;;;15.86;56.58;102304.69;2088083;28;20061;-72
2022/12/04 00:13:50;;;;;;;0.00;0.00;;;;;;;15.88;56.43;102305.16;2085532;28;20053;-72
2022/12/04 00:14:52;;;;;;;0.00;0.00;;;;;;;15.88;56.55;102302.44;2073776;28;20053;-71
2022/12/04 00:16:17;;;;;;;0.00;0.00;;;;;;;15.85;56.77;102307.75;2083741;28;20057;-72
2022/12/04 00:17:19;;;;;;;0.00;0.00;;;;;;;15.85;56.62;102300.38;2080855;28;20052;-71
2022/12/04 00:18:22;;;;;;;0.00;0.00;;;;;;;15.87;56.67;102300.81;2087054;28;20513;-72
2022/12/04 00:19:24;;;;;;;0.00;0.00;;;;;;;15.88;56.70;102296.19;2088425;28;20515;-72
2022/12/04 00:20:26;;;;;;;0.00;0.00;;;;;;;15.88;56.76;102296.19;2093351;28;20052;-72
2022/12/04 00:21:29;;;;;;;0.00;0.00;;;;;;;15.89;56.74;102301.28;2089818;28;20053;-72
2022/12/04 00:22:33;;;;;;;0.00;0.00;;;;;;;15.89;56.49;102292.31;2085292;28;20060;-71
2022/12/04 00:23:36;;;;;;;0.00;0.00;;;;;;;15.88;56.60;102291.53;2087193;28;20155;-71
2022/12/04 00:24:39;;;;;;;0.00;0.00;;;;;;;15.89;56.57;102295.84;2089552;28;20277;-71
2022/12/04 00:25:41;;;;;;;0.00;0.00;;;;;;;15.89;56.87;102287.66;2093527;28;20067;-71
2022/12/04 00:26:45;;;;;;;0.00;0.00;;;;;;;15.89;56.64;102293.09;2071979;28;20133;-71
2022/12/04 00:27:47;;;;;;;0.00;0.00;;;;;;;15.89;56.57;102295.84;2077208;28;20053;-71
2022/12/04 00:28:50;;;;;;;0.00;0.00;;;;;;;15.89;56.66;102290.38;2091857;28;20052;-71
2022/12/04 00:29:52;;;;;;;0.00;0.00;;;;;;;15.89;56.70;102295.84;2090480;28;20052;-71
2022/12/04 00:30:55;;;;;;;0.00;0.00;;;;;;;15.90;56.61;102289.25;2096027;28;20087;-71
2022/12/04 00:31:57;;;;;;;0.00;0.00;;;;;;;15.91;56.78;102290.84;2092362;28;20535;-71
2022/12/04 00:33:00;;;;;;;0.00;0.00;;;;;;;15.90;56.66;102294.69;2092198;28;20061;-71
2022/12/04 00:34:02;;;;;;;0.00;0.00;;;;;;;15.91;56.52;102290.03;2083588;28;20053;-71
2022/12/04 00:35:09;;;;;;;0.00;0.00;;;;;;;15.91;56.67;102292.78;2083372;28;20049;-72
2022/12/04 00:36:14;;;;;;;0.00;0.00;;;;;;;15.92;56.55;102292.44;2090886;28;20052;-72
2022/12/04 00:37:18;;;;;;;0.00;0.00;;;;;;;15.92;56.49;102292.44;2095476;28;20056;-72
2022/12/04 00:38:19;;;;;;;0.00;0.00;;;;;;;15.91;56.56;102293.56;2084528;28;20049;-71
2022/12/04 00:39:22;;;;;;;0.00;0.00;;;;;;;15.91;56.60;102293.56;2080630;28;20076;-71
2022/12/04 00:40:24;;;;;;;0.00;0.00;;;;;;;15.91;56.49;102290.84;2093668;28;20075;-71
2022/12/04 00:41:28;;;;;;;0.00;0.00;;;;;;;15.92;56.44;102295.16;2088536;28;20049;-72
2022/12/04 00:42:30;;;;;;;0.00;0.00;;;;;;;15.92;56.37;102291.66;2082375;28;20067;-71
2022/12/04 00:43:33;;;;;;;0.00;0.00;;;;;;;15.92;56.17;102292.44;2076078;28;20050;-71
2022/12/04 00:44:35;;;;;;;0.00;0.00;;;;;;;15.92;56.35;102294.38;2079794;28;20084;-71
2022/12/04 00:45:37;;;;;;;0.00;0.00;;;;;;;15.92;56.26;102294.38;2081050;28;20061;-71
2022/12/04 00:46:39;;;;;;;0.00;0.00;;;;;;;15.91;56.29;102293.56;2073576;28;20058;-71
2022/12/04 00:47:42;;;;;;;0.00;0.00;;;;;;;15.92;56.29;102294.38;2082124;28;20064;-71
2022/12/04 00:48:44;;;;;;;0.00;0.00;;;;;;;15.93;56.19;102298.69;2093430;28;20040;-71
2022/12/04 00:49:47;;;;;;;0.00;0.00;;;;;;;15.92;56.27;102292.44;2085963;28;20061;-72
2022/12/04 00:50:48;;;;;;;0.00;0.00;;;;;;;15.93;56.12;102298.69;2079580;28;20061;-71
2022/12/04 00:51:51;;;;;;;0.00;0.00;;;;;;;15.92;56.06;102291.66;2082924;28;20877;-72
2022/12/04 00:52:56;;;;;;;0.00;0.00;;;;;;;15.93;56.00;102287.78;2079190;28;20049;-71
2022/12/04 00:53:59;;;;;;;0.00;0.00;;;;;;;15.91;56.23;102292.78;2087187;28;20056;-72
2022/12/04 00:55:01;;;;;;;0.00;0.00;;;;;;;15.90;56.03;102291.97;2092790;28;20048;-72
2022/12/04 00:56:04;;;;;;;0.00;0.00;;;;;;;15.91;56.27;102293.56;2088324;28;20068;-72
2022/12/04 00:57:06;;;;;;;0.00;0.00;;;;;;;15.90;56.11;102291.97;2094599;28;20083;-71
2022/12/04 00:58:09;;;;;;;0.00;0.00;;;;;;;15.92;56.08;102291.66;2094223;28;20053;-72
2022/12/04 00:59:12;;;;;;;0.00;0.00;;;;;;;15.91;56.00;102290.03;2085383;28;20567;-71
2022/12/04 01:00:15;;;;;;;0.00;0.00;;;;;;;15.91;56.15;102284.59;2081280;28;20124;-71
2022/12/04 01:01:19;;;;;;;0.00;0.00;;;;;;;15.90;56.00;102289.25;2094434;28;20515;-72
2022/12/04 01:02:22;;;;;;;0.00;0.00;;;;;;;15.90;55.97;102285.75;2083002;28;20053;-72
2022/12/04 01:03:24;;;;;;;0.00;0.00;;;;;;;15.89;56.05;102284.94;2086519;28;20124;-72
2022/12/04 01:04:27;;;;;;;0.00;0.00;;;;;;;15.89;55.99;102290.38;2091276;28;20753;-72
2022/12/04 01:05:28;;;;;;;0.00;0.00;;;;;;;15.88;56.10;102291.53;2088296;28;20304;-71
2022/12/04 01:06:33;;;;;;;0.00;0.00;;;;;;;15.89;56.01;102290.38;2090176;28;20510;-72
2022/12/04 01:07:35;;;;;;;0.00;0.00;;;;;;;15.87;55.74;102287.19;2093355;28;20076;-71
2022/12/04 01:08:40;;;;;;;0.00;0.00;;;;;;;15.87;55.95;102279.03;2088305;28;20084;-71
2022/12/04 01:09:41;;;;;;;0.00;0.00;;;;;;;15.85;56.07;102281.31;2079108;28;20061;-71
2022/12/04 01:10:44;;;;;;;0.00;0.00;;;;;;;15.86;56.12;102282.09;2079703;28;20060;-72
2022/12/04 01:11:46;;;;;;;0.00;0.00;;;;;;;15.86;56.09;102293.78;2088615;28;20394;-72
2022/12/04 01:12:49;;;;;;;0.00;0.00;;;;;;;15.85;56.15;102286.78;2084438;28;20545;-71
2022/12/04 01:13:51;;;;;;;0.00;0.00;;;;;;;15.84;55.98;102287.88;2077210;28;20072;-72
2022/12/04 01:14:54;;;;;;;0.00;0.00;;;;;;;15.83;55.98;102294.47;2077290;28;20125;-72
2022/12/04 01:15:55;;;;;;;0.00;0.00;;;;;;;15.83;56.23;102286.31;2076925;28;20467;-72
2022/12/04 01:16:59;;;;;;;0.00;0.00;;;;;;;15.83;56.10;102282.78;2083226;28;20061;-71
2022/12/04 01:18:00;;;;;;;0.00;0.00;;;;;;;15.82;56.08;102279.28;2086171;28;20144;-71
2022/12/04 01:19:05;;;;;;;0.00;0.00;;;;;;;15.82;56.01;102275.75;2088297;28;20523;-72
2022/12/04 01:20:07;;;;;;;0.00;0.00;;;;;;;15.81;56.23;102276.91;2086560;28;20544;-71
2022/12/04 01:21:11;;;;;;;0.00;0.00;;;;;;;15.81;56.12;102279.63;2076899;28;20054;-71
2022/12/04 01:22:14;;;;;;;0.00;0.00;;;;;;;15.79;56.03;102279.94;2087590;28;20059;-71
2022/12/04 01:23:16;;;;;;;0.00;0.00;;;;;;;15.79;56.15;102277.22;2097221;28;20056;-71
2022/12/04 01:24:20;;;;;;;0.00;0.00;;;;;;;15.80;56.09;102278.81;2085475;28;20053;-71
2022/12/04 01:25:22;;;;;;;0.00;0.00;;;;;;;15.77;56.20;102278.69;2087052;28;20536;-72
2022/12/04 01:26:25;;;;;;;0.00;0.00;;;;;;;15.77;56.22;102276.78;2091898;28;20051;-72
2022/12/04 01:27:26;;;;;;;0.00;0.00;;;;;;;15.76;56.20;102277.91;2082331;28;20480;-71
2022/12/04 01:28:30;;;;;;;0.00;0.00;;;;;;;15.75;55.77;102281.75;2080362;28;20042;-71
2022/12/04 01:29:33;;;;;;;0.00;0.00;;;;;;;15.76;56.10;102277.91;2077744;28;20092;-72
2022/12/04 01:30:35;;;;;;;0.00;0.00;;;;;;;15.74;56.14;102271.22;2080043;28;20053;-71
2022/12/04 01:31:38;;;;;;;0.00;0.00;;;;;;;15.74;56.06;102282.91;2083088;28;20057;-72
2022/12/04 01:32:40;;;;;;;0.00;0.00;;;;;;;15.73;56.07;102278.59;2094951;28;20052;-71
2022/12/04 01:33:43;;;;;;;0.00;0.00;;;;;;;15.73;56.17;102278.59;2090552;28;20083;-72
2022/12/04 01:34:45;;;;;;;0.00;0.00;;;;;;;15.73;56.28;102283.25;2089852;28;20519;-71
2022/12/04 01:35:52;;;;;;;0.00;0.00;;;;;;;15.73;56.08;102275.09;2080256;28;20064;-71
2022/12/04 01:36:54;;;;;;;0.00;0.00;;;;;;;15.70;56.41;102279.25;2088112;28;20060;-71
2022/12/04 01:37:57;;;;;;;0.00;0.00;;;;;;;15.70;56.19;102279.25;2095040;28;20056;-72
2022/12/04 01:38:58;;;;;;;0.00;0.00;;;;;;;15.70;56.25;102279.25;2086451;28;20141;-71
2022/12/04 01:40:04;;;;;;;0.00;0.00;;;;;;;15.70;56.14;102279.25;2081847;28;20260;-71
2022/12/04 01:41:08;;;;;;;0.00;0.00;;;;;;;15.70;56.20;102278.47;2086364;28;20080;-71
2022/12/04 01:42:13;;;;;;;0.00;0.00;;;;;;;15.70;56.13;102283.91;2086307;28;20049;-72
2022/12/04 01:43:16;;;;;;;0.00;0.00;;;;;;;15.69;56.25;102277.69;2085493;28;20049;-71
2022/12/04 01:44:21;;;;;;;0.00;0.00;;;;;;;15.68;55.97;102276.06;2092830;28;20056;-71
2022/12/04 01:45:35;;;;;;;0.00;0.00;;;;;;;15.65;56.27;102278.72;2087492;28;20524;-72
2022/12/04 01:46:39;;;;;;;0.00;0.00;;;;;;;15.63;56.64;102273.59;2087936;28;20049;-72
2022/12/04 01:47:41;;;;;;;0.00;0.00;;;;;;;15.64;56.41;102279.81;2080465;28;20068;-72
2022/12/04 01:48:49;;;;;;;0.00;0.00;;;;;;;15.65;56.15;102282.19;2077517;28;20096;-72
2022/12/04 01:49:51;;;;;;;0.00;0.00;;;;;;;15.63;56.48;102281.78;2086728;28;20050;-72
2022/12/04 01:51:01;;;;;;;0.00;0.00;;;;;;;15.63;56.37;102268.16;2084128;28;20114;-72
2022/12/04 01:52:09;;;;;;;0.00;0.00;;;;;;;15.61;56.23;102278.59;2081964;28;20108;-71
2022/12/04 01:53:11;;;;;;;0.00;0.00;;;;;;;15.60;56.29;102268.81;2084186;28;20073;-71
2022/12/04 01:54:18;;;;;;;0.00;0.00;;;;;;;15.62;56.30;102276.66;2088065;28;20060;-72
2022/12/04 01:55:21;;;;;;;0.00;0.00;;;;;;;15.62;56.40;102271.22;2091773;28;20512;-71
2022/12/04 01:56:29;;;;;;;0.00;0.00;;;;;;;15.60;56.31;102274.25;2089588;28;20493;-72
2022/12/04 01:57:31;;;;;;;0.00;0.00;;;;;;;15.59;56.26;102272.69;2097233;28;20052;-72
2022/12/04 01:58:40;;;;;;;0.00;0.00;;;;;;;15.59;56.21;102275.41;2095229;28;20075;-72
2022/12/04 01:59:47;;;;;;;0.00;0.00;;;;;;;15.58;56.37;102271.09;2089970;28;20060;-71
2022/12/04 02:00:54;;;;;;;0.00;0.00;;;;;;;15.58;56.16;102276.53;2089523;28;20041;-71
2022/12/04 02:02:03;;;;;;;;;;;;;;;15.37;56.83;102275.00;2082573;28;20054;-72
2022/12/04 02:03:05;;;;;;;0.00;0.00;;;;;;;15.49;56.66;102277.78;2087241;28;20015;-72
2022/12/04 02:04:08;;;;;;;0.00;0.00;;;;;;;15.53;56.66;102278.69;2080780;28;20053;-72
2022/12/04 02:05:12;;;;;;;0.00;0.00;;;;;;;15.56;56.43;102283.44;2073180;28;20064;-72
2022/12/04 02:06:15;;;;;;;0.00;0.00;;;;;;;15.57;56.52;102277.66;2076775;28;20461;-71
2022/12/04 02:07:17;;;;;;;0.00;0.00;;;;;;;15.58;56.39;102279.25;2084200;28;20057;-71
2022/12/04 02:08:19;;;;;;;0.00;0.00;;;;;;;15.59;56.34;102272.69;2094401;28;20051;-72
2022/12/04 02:09:22;;;;;;;0.00;0.00;;;;;;;15.60;56.56;102273.47;2080943;28;20091;-72
2022/12/04 02:10:40;;;;;;;0.00;0.00;;;;;;;15.58;56.47;102268.38;2078771;28;20484;-72
2022/12/04 02:11:49;;;;;;;0.00;0.00;;;;;;;15.60;56.50;102273.47;2088336;28;20118;-72
2022/12/04 02:13:01;;;;;;;0.00;0.00;;;;;;;15.58;56.67;102270.28;2089689;28;20053;-71
2022/12/04 02:14:14;;;;;;;0.00;0.00;;;;;;;15.59;56.52;102264.50;2091737;28;20063;-72
2022/12/04 02:15:22;;;;;;;0.00;0.00;;;;;;;15.62;56.61;102269.28;2087499;28;20882;-72
2022/12/04 02:16:34;;;;;;;0.00;0.00;;;;;;;15.62;56.51;102268.50;2087517;28;20143;-72
2022/12/04 02:17:44;;;;;;;0.00;0.00;;;;;;;15.61;56.62;102264.97;2087634;28;20052;-72
2022/12/04 02:18:56;;;;;;;0.00;0.00;;;;;;;15.61;56.56;102264.97;2084343;28;20060;-72
2022/12/04 02:20:21;;;;;;;0.00;0.00;;;;;;;15.58;56.61;102264.84;2089973;28;20092;-72
2022/12/04 02:21:30;;;;;;;0.00;0.00;;;;;;;15.62;56.77;102263.06;2087989;28;20171;-72
2022/12/04 02:22:53;;;;;;;0.00;0.00;;;;;;;15.59;56.63;102267.22;2081385;28;20065;-72
2022/12/04 02:24:32;;;;;;;0.00;0.00;;;;;;;15.60;56.82;102257.91;2089502;28;20049;-72
2022/12/04 02:25:44;;;;;;;0.00;0.00;;;;;;;15.59;56.81;102259.06;2080625;28;20053;-72
2022/12/04 02:26:50;;;;;;;0.00;0.00;;;;;;;15.62;57.08;102250.22;2085179;28;20045;-72
2022/12/04 02:28:07;;;;;;;0.00;0.00;;;;;;;15.59;56.84;102256.34;2087828;28;20556;-72
2022/12/04 02:29:18;;;;;;;0.00;0.00;;;;;;;15.65;56.59;102259.66;2082691;28;20050;-72
2022/12/04 02:30:19;;;;;;;0.00;0.00;;;;;;;15.65;56.73;102257.69;2089372;28;20076;-72
2022/12/04 02:31:30;;;;;;;0.00;0.00;;;;;;;15.67;56.63;102251.91;2080512;28;20104;-72
2022/12/04 02:32:40;;;;;;;0.00;0.00;;;;;;;15.67;56.75;102254.63;2086213;28;20056;-72
2022/12/04 02:33:47;;;;;;;0.00;0.00;;;;;;;15.67;56.64;102251.91;2096557;28;20110;-72
2022/12/04 02:34:55;;;;;;;0.00;0.00;;;;;;;15.67;56.69;102258.16;2077272;28;20050;-71
2022/12/04 02:36:04;;;;;;;0.00;0.00;;;;;;;15.68;56.72;102259.75;2074001;28;20065;-72
2022/12/04 02:37:11;;;;;;;0.00;0.00;;;;;;;15.68;56.66;102259.75;2095097;28;20571;-72
2022/12/04 02:38:21;;;;;;;0.00;0.00;;;;;;;15.69;56.78;102258.63;2093836;28;20052;-72
2022/12/04 02:39:26;;;;;;;0.00;0.00;;;;;;;15.68;56.78;102254.28;2079992;28;20057;-71
2022/12/04 02:40:33;;;;;;;0.00;0.00;;;;;;;15.71;56.45;102252.84;2081307;28;20090;-71
2022/12/04 02:41:40;;;;;;;0.00;0.00;;;;;;;15.72;56.60;102260.66;2084756;28;20049;-72
2022/12/04 02:42:48;;;;;;;0.00;0.00;;;;;;;15.72;56.86;102257.13;2082913;28;20088;-72
2022/12/04 02:43:56;;;;;;;0.00;0.00;;;;;;;15.70;56.54;102252.03;2088900;28;20049;-71
2022/12/04 02:45:02;;;;;;;0.00;0.00;;;;;;;15.73;56.73;102262.25;2092021;28;20057;-72
2022/12/04 02:46:10;;;;;;;0.00;0.00;;;;;;;15.73;56.66;102258.75;2093347;28;20712;-71
2022/12/04 02:47:16;;;;;;;0.00;0.00;;;;;;;15.74;56.56;102261.13;2089028;28;20136;-72
2022/12/04 02:48:20;;;;;;;0.00;0.00;;;;;;;15.75;56.47;102259.97;2093754;28;20051;-72
2022/12/04 02:49:27;;;;;;;0.00;0.00;;;;;;;15.76;56.45;102258.06;2095852;28;20079;-72
2022/12/04 02:50:32;;;;;;;0.00;0.00;;;;;;;15.75;56.54;102261.91;2090805;28;20057;-72
2022/12/04 02:51:37;;;;;;;0.00;0.00;;;;;;;15.78;56.44;102264.75;2085928;28;20057;-71
2022/12/04 02:52:45;;;;;;;0.00;0.00;;;;;;;15.78;56.61;102267.47;2086716;28;20057;-72
2022/12/04 02:53:52;;;;;;;0.00;0.00;;;;;;;15.78;56.70;102253.84;2092958;28;20052;-72
2022/12/04 02:54:58;;;;;;;0.00;0.00;;;;;;;15.77;56.65;102263.16;2090688;28;20056;-72
2022/12/04 02:56:09;;;;;;;0.00;0.00;;;;;;;15.77;56.46;102257.72;2091096;28;20059;-72
2022/12/04 02:57:15;;;;;;;0.00;0.00;;;;;;;15.79;56.60;102265.53;2088941;28;20056;-72
2022/12/04 02:58:25;;;;;;;0.00;0.00;;;;;;;15.79;56.44;102262.81;2088806;28;20057;-71
2022/12/04 02:59:33;;;;;;;0.00;0.00;;;;;;;15.76;56.65;102264.28;2089941;28;20095;-71
2022/12/04 03:00:37;;;;;;;0.00;0.00;;;;;;;15.78;56.67;102262.03;2080481;28;20052;-72
2022/12/04 03:01:42;;;;;;;0.00;0.00;;;;;;;15.78;56.57;102255.78;2075106;28;20121;-72
2022/12/04 03:02:49;;;;;;;0.00;0.00;;;;;;;15.81;56.51;102258.63;2082064;28;20053;-72
2022/12/04 03:03:57;;;;;;;0.00;0.00;;;;;;;15.82;56.51;102270.31;2084314;28;20153;-72
2022/12/04 03:05:08;;;;;;;0.00;0.00;;;;;;;15.81;56.61;102260.56;2086166;28;20091;-72
2022/12/04 03:06:12;;;;;;;0.00;0.00;;;;;;;15.80;56.51;102262.47;2091002;28;20075;-72
2022/12/04 03:07:19;;;;;;;0.00;0.00;;;;;;;15.81;56.48;102258.63;2092306;28;20060;-72
2022/12/04 03:08:25;;;;;;;0.00;0.00;;;;;;;15.82;56.20;102265.66;2085003;28;20119;-72
2022/12/04 03:09:33;;;;;;;0.00;0.00;;;;;;;15.83;56.64;102263.72;2081127;28;20049;-72
2022/12/04 03:10:42;;;;;;;0.00;0.00;;;;;;;15.83;56.57;102261.00;2077929;28;20061;-71
2022/12/04 03:11:49;;;;;;;0.00;0.00;;;;;;;15.82;56.41;102252.06;2072586;28;20085;-72
2022/12/04 03:12:54;;;;;;;0.00;0.00;;;;;;;15.84;56.39;102257.16;2083389;28;20092;-72
2022/12/04 03:14:01;;;;;;;0.00;0.00;;;;;;;15.84;56.46;102249.75;2094647;28;20044;-72
2022/12/04 03:15:10;;;;;;;0.00;0.00;;;;;;;15.83;56.50;102245.47;2095486;28;20083;-74
2022/12/04 03:16:18;;;;;;;0.00;0.00;;;;;;;15.83;56.55;102245.47;2096204;28;20057;-74
2022/12/04 03:17:25;;;;;;;0.00;0.00;;;;;;;15.85;56.67;102258.72;2084112;28;20049;-74
2022/12/04 03:18:32;;;;;;;0.00;0.00;;;;;;;15.83;56.47;102248.19;2086056;28;20077;-74
2022/12/04 03:19:40;;;;;;;0.00;0.00;;;;;;;15.85;56.43;102256.81;2088702;28;20056;-74
2022/12/04 03:20:47;;;;;;;0.00;0.00;;;;;;;15.85;56.63;102258.72;2089543;28;20053;-74
2022/12/04 03:21:53;;;;;;;0.00;0.00;;;;;;;15.85;56.35;102253.28;2090976;28;20052;-74
2022/12/04 03:23:02;;;;;;;0.00;0.00;;;;;;;15.86;56.47;102257.59;2095578;28;20052;-74
2022/12/04 03:24:11;;;;;;;0.00;0.00;;;;;;;15.85;56.55;102254.09;2091629;28;20079;-74
2022/12/04 03:25:14;;;;;;;0.00;0.00;;;;;;;15.83;56.61;102256.34;2089708;28;20066;-74
2022/12/04 03:26:23;;;;;;;0.00;0.00;;;;;;;15.85;56.39;102254.09;2084177;28;20495;-74
2022/12/04 03:27:34;;;;;;;0.00;0.00;;;;;;;15.86;56.51;102254.84;2082220;28;20049;-71
2022/12/04 03:28:45;;;;;;;0.00;0.00;;;;;;;15.84;56.39;102263.38;2091230;28;20052;-72
2022/12/04 03:29:53;;;;;;;0.00;0.00;;;;;;;15.86;56.52;102257.59;2089908;28;20058;-72
2022/12/04 03:31:02;;;;;;;0.00;0.00;;;;;;;15.86;56.42;102260.31;2088887;28;20110;-72
2022/12/04 03:32:10;;;;;;;0.00;0.00;;;;;;;15.87;56.35;102259.19;2082422;28;20065;-72
2022/12/04 03:33:15;;;;;;;0.00;0.00;;;;;;;15.87;56.44;102261.91;2084997;28;20060;-71
2022/12/04 03:34:26;;;;;;;0.00;0.00;;;;;;;15.87;56.36;102259.97;2096143;28;20040;-72
2022/12/04 03:35:38;;;;;;;0.00;0.00;;;;;;;15.86;56.57;102261.13;2088720;28;20056;-71
2022/12/04 03:36:49;;;;;;;0.00;0.00;;;;;;;15.85;56.62;102259.53;2089831;28;20053;-72
2022/12/04 03:37:56;;;;;;;0.00;0.00;;;;;;;15.86;56.44;102255.66;2081136;28;20630;-72
2022/12/04 03:39:05;;;;;;;0.00;0.00;;;;;;;15.88;56.33;102258.03;2087238;28;20053;-72
2022/12/04 03:40:16;;;;;;;0.00;0.00;;;;;;;15.84;56.46;102255.19;2083114;28;20720;-72
2022/12/04 03:41:25;;;;;;;0.00;0.00;;;;;;;15.85;56.29;102254.09;2083874;28;20539;-72
2022/12/04 03:42:34;;;;;;;0.00;0.00;;;;;;;15.86;56.30;102257.59;2093190;28;20101;-72
2022/12/04 03:43:44;;;;;;;0.00;0.00;;;;;;;15.87;56.27;102259.19;2083519;28;20784;-71
2022/12/04 03:44:50;;;;;;;0.00;0.00;;;;;;;15.86;56.44;102268.47;2083555;28;20072;-72
2022/12/04 03:45:58;;;;;;;0.00;0.00;;;;;;;15.86;56.47;102261.13;2089463;28;20053;-72
2022/12/04 03:47:06;;;;;;;0.00;0.00;;;;;;;15.88;56.43;102268.94;2093990;28;20060;-72
2022/12/04 03:48:17;;;;;;;0.00;0.00;;;;;;;15.86;56.33;102255.66;2095143;28;20040;-72
2022/12/04 03:49:32;;;;;;;0.00;0.00;;;;;;;15.83;56.31;102267.25;2087210;28;20049;-71
2022/12/04 03:50:37;;;;;;;0.00;0.00;;;;;;;15.85;56.59;102262.25;2084649;28;20057;-72
2022/12/04 03:51:46;;;;;;;0.00;0.00;;;;;;;15.88;56.46;102263.50;2082755;28;20045;-72
2022/12/04 03:52:57;;;;;;;0.00;0.00;;;;;;;15.88;56.52;102267.03;2075082;28;20918;-71
2022/12/04 03:54:04;;;;;;;0.00;0.00;;;;;;;15.87;56.50;102262.69;2086858;28;20060;-72
2022/12/04 03:55:13;;;;;;;0.00;0.00;;;;;;;15.88;56.50;102269.75;2088618;28;20060;-71
2022/12/04 03:56:19;;;;;;;0.00;0.00;;;;;;;15.89;56.48;102265.06;2084369;28;20057;-72
2022/12/04 03:57:25;;;;;;;0.00;0.00;;;;;;;15.90;56.46;102261.22;2072188;28;20065;-72
2022/12/04 03:58:30;;;;;;;0.00;0.00;;;;;;;15.90;56.38;102261.22;2086038;28;20052;-71
2022/12/04 03:59:38;;;;;;;0.00;0.00;;;;;;;15.89;56.26;102271.31;2091665;28;20480;-71
2022/12/04 04:00:43;;;;;;;0.00;0.00;;;;;;;15.89;56.39;102260.44;2091235;28;20088;-71
2022/12/04 04:01:48;;;;;;;0.00;0.00;;;;;;;15.91;56.40;102258.16;2084346;28;20603;-71
2022/12/04 04:02:58;;;;;;;0.00;0.00;;;;;;;15.89;56.22;102260.44;2076979;28;20057;-72
2022/12/04 04:04:06;;;;;;;0.00;0.00;;;;;;;15.90;56.41;102258.50;2081153;28;20057;-72
2022/12/04 04:05:12;;;;;;;0.00;0.00;;;;;;;15.91;56.54;102262.81;2079596;28;20057;-72
2022/12/04 04:06:19;;;;;;;0.00;0.00;;;;;;;15.91;56.42;102258.16;2073632;28;20099;-72
2022/12/04 04:07:28;;;;;;;0.00;0.00;;;;;;;15.91;56.30;102255.44;2086418;28;20068;-72
2022/12/04 04:08:40;;;;;;;0.00;0.00;;;;;;;15.89;56.38;102260.44;2079641;28;20068;-72
2022/12/04 04:09:47;;;;;;;0.00;0.00;;;;;;;15.91;56.37;102257.34;2087711;28;20052;-72
2022/12/04 04:10:51;;;;;;;0.00;0.00;;;;;;;15.91;56.26;102255.44;2092339;28;20052;-72
2022/12/04 04:12:00;;;;;;;0.00;0.00;;;;;;;15.92;56.40;102258.97;2090701;28;20746;-71
2022/12/04 04:24:42;;;;;;;0.00;0.00;;;;;;;15.79;56.51;102265.53;2052263;28;20070;-72
2022/12/04 04:25:46;;;;;;;0.00;0.00;;;;;;;15.84;56.47;102263.38;2049047;28;20101;-71
2022/12/04 04:26:49;;;;;;;0.00;0.00;;;;;;;15.87;56.43;102256.47;2045047;29;20503;-72
2022/12/04 04:27:52;;;;;;;0.00;0.00;;;;;;;15.87;56.60;102257.25;2038789;29;20063;-72
2022/12/04 04:28:55;;;;;;;0.00;0.00;;;;;;;15.88;56.47;102261.56;2049299;28;20064;-72
2022/12/04 04:29:57;;;;;;;0.00;0.00;;;;;;;15.88;56.48;102258.84;2059511;28;20201;-72
2022/12/04 04:31:08;;;;;;;0.00;0.00;;;;;;;15.89;56.42;102254.97;2095062;28;20071;-72
2022/12/04 04:32:17;;;;;;;0.00;0.00;;;;;;;15.88;56.47;102247.94;2080711;28;20087;-72
2022/12/04 04:33:20;;;;;;;0.00;0.00;;;;;;;15.89;56.58;102257.69;2083033;28;20060;-72
2022/12/04 04:34:32;;;;;;;0.00;0.00;;;;;;;15.89;56.41;102254.97;2085315;28;20056;-72
2022/12/04 04:35:47;;;;;;;0.00;0.00;;;;;;;15.87;56.24;102257.25;2088338;28;20053;-71
2022/12/04 04:36:54;;;;;;;0.00;0.00;;;;;;;15.89;56.37;102254.19;2091344;28;20056;-71
2022/12/04 04:38:06;;;;;;;0.00;0.00;;;;;;;15.90;56.16;102258.50;2090308;28;20441;-72
2022/12/04 04:39:16;;;;;;;0.00;0.00;;;;;;;15.89;56.11;102254.19;2090613;28;20048;-72
2022/12/04 04:40:22;;;;;;;;;;;;;;;15.69;56.51;102247.72;2084163;28;20101;-72
2022/12/04 04:41:31;;;;;;;0.00;0.00;;;;;;;15.82;56.36;102252.06;2080463;28;19940;-72
2022/12/04 04:42:38;;;;;;;0.00;0.00;;;;;;;15.85;56.35;102247.84;2088562;28;20049;-72
2022/12/04 04:43:47;;;;;;;0.00;0.00;;;;;;;15.87;56.17;102245.56;2092120;28;20056;-72
2022/12/04 04:44:57;;;;;;;0.00;0.00;;;;;;;15.86;56.21;102250.22;2083996;28;20057;-72
2022/12/04 04:46:02;;;;;;;0.00;0.00;;;;;;;15.86;56.11;102249.41;2077289;28;20980;-72
2022/12/04 04:47:11;;;;;;;0.00;0.00;;;;;;;15.87;56.14;102243.63;2080010;28;20061;-72
2022/12/04 04:48:15;;;;;;;0.00;0.00;;;;;;;15.88;55.96;102247.16;2089225;28;20045;-72
2022/12/04 04:49:23;;;;;;;0.00;0.00;;;;;;;15.88;56.11;102247.94;2090941;28;20132;-72
2022/12/04 04:50:28;;;;;;;0.00;0.00;;;;;;;15.88;56.06;102250.69;2081951;28;20064;-72
2022/12/04 04:51:32;;;;;;;0.00;0.00;;;;;;;15.88;56.02;102247.94;2084039;28;20100;-72
2022/12/04 04:52:37;;;;;;;0.00;0.00;;;;;;;15.89;56.12;102244.09;2085524;28;20057;-72
2022/12/04 04:53:43;;;;;;;0.00;0.00;;;;;;;15.89;55.94;102254.19;2081457;28;20053;-72
2022/12/04 04:54:46;;;;;;;0.00;0.00;;;;;;;15.89;55.94;102246.00;2093899;28;20071;-72
2022/12/04 04:55:48;;;;;;;0.00;0.00;;;;;;;15.89;55.96;102252.25;2097166;28;20061;-72
2022/12/04 04:56:51;;;;;;;0.00;0.00;;;;;;;15.89;55.92;102254.19;2088682;28;20096;-72
2022/12/04 04:57:53;;;;;;;0.00;0.00;;;;;;;15.90;55.96;102261.22;2088567;28;20049;-72
2022/12/04 04:58:56;;;;;;;0.00;0.00;;;;;;;15.90;55.99;102253.06;2093151;28;20483;-71
2022/12/04 04:59:57;;;;;;;0.00;0.00;;;;;;;15.89;55.99;102254.19;2081139;28;20060;-72
2022/12/04 05:01:04;;;;;;;0.00;0.00;;;;;;;15.90;55.85;102256.56;2082668;28;20249;-72
2022/12/04 05:02:06;;;;;;;0.00;0.00;;;;;;;15.89;55.75;102254.97;2088160;28;20099;-72
2022/12/04 05:03:09;;;;;;;0.00;0.00;;;;;;;15.89;55.68;102254.97;2080402;28;20408;-72
2022/12/04 05:04:12;;;;;;;0.00;0.00;;;;;;;15.89;55.99;102262.34;2084343;28;20083;-72
2022/12/04 05:05:14;;;;;;;0.00;0.00;;;;;;;15.89;55.89;102265.06;2089478;28;20066;-72
2022/12/04 05:06:17;;;;;;;0.00;0.00;;;;;;;15.90;55.77;102275.63;2094136;28;20052;-72
2022/12/04 05:07:21;;;;;;;0.00;0.00;;;;;;;15.85;56.07;102264.97;2092089;28;20048;-72
2022/12/04 05:08:23;;;;;;;0.00;0.00;;;;;;;15.88;55.98;102268.94;2089636;28;20060;-72
2022/12/04 05:09:26;;;;;;;0.00;0.00;;;;;;;15.87;55.85;102267.38;2086825;28;20045;-72
2022/12/04 05:10:28;;;;;;;0.00;0.00;;;;;;;15.84;55.86;102257.94;2087664;28;20053;-72
2022/12/04 05:11:30;;;;;;;0.00;0.00;;;;;;;15.85;56.01;102267.72;2086249;28;20060;-72
2022/12/04 05:12:32;;;;;;;0.00;0.00;;;;;;;15.86;55.95;102269.28;2080320;28;20053;-72
2022/12/04 05:13:35;;;;;;;0.00;0.00;;;;;;;15.86;55.99;102273.94;2080078;28;20580;-71
2022/12/04 05:14:36;;;;;;;0.00;0.00;;;;;;;15.85;56.15;102270.44;2075064;28;20142;-72
2022/12/04 05:15:39;;;;;;;0.00;0.00;;;;;;;15.85;55.81;102273.16;2083807;28;20050;-72
2022/12/04 05:16:41;;;;;;;0.00;0.00;;;;;;;15.84;55.59;102268.81;2089668;28;20052;-72
2022/12/04 05:17:44;;;;;;;0.00;0.00;;;;;;;15.85;55.92;102278.59;2092207;28;20059;-72